createdAt,value
2023-03-10T00:01:43.644Z,12.49
2023-03-10T00:04:14.651Z,12.49
2023-03-10T00:06:45.561Z,12.48
2023-03-10T00:09:16.429Z,12.47
2023-03-10T00:11:47.453Z,12.43
2023-03-10T00:14:18.952Z,12.37
2023-03-10T00:16:49.671Z,12.32
2023-03-10T00:19:20.502Z,12.30
2023-03-10T00:21:51.156Z,12.28
2023-03-10T00:24:21.914Z,12.25
2023-03-10T00:26:52.610Z,12.23
2023-03-10T00:29:23.359Z,12.23
2023-03-10T00:31:54.064Z,12.21
2023-03-10T00:34:24.905Z,12.19
2023-03-10T00:36:55.874Z,12.16
2023-03-10T00:39:26.657Z,12.14
2023-03-10T00:41:57.380Z,12.12
2023-03-10T00:44:28.466Z,12.12
2023-03-10T00:46:59.382Z,12.13
2023-03-10T00:49:30.106Z,12.15
2023-03-10T00:52:00.914Z,12.15
2023-03-10T00:54:31.758Z,12.15
2023-03-10T00:57:03.454Z,12.14
2023-03-10T00:59:47.776Z,12.13
2023-03-10T01:02:20.983Z,12.10
2023-03-10T01:04:51.796Z,12.08
2023-03-10T01:07:22.547Z,12.06
2023-03-10T01:09:55.900Z,12.07
2023-03-10T01:12:26.854Z,12.06
2023-03-10T01:14:57.641Z,12.09
2023-03-10T01:17:28.385Z,12.12
2023-03-10T01:19:59.414Z,12.10
2023-03-10T01:22:30.173Z,12.05
2023-03-10T01:25:01.038Z,11.96
2023-03-10T01:27:31.765Z,11.89
2023-03-10T01:30:02.580Z,11.87
2023-03-10T01:32:33.601Z,11.87
2023-03-10T01:35:04.359Z,11.84
2023-03-10T01:37:35.283Z,11.78
2023-03-10T01:40:08.821Z,11.72
2023-03-10T01:42:39.575Z,11.70
2023-03-10T01:45:11.983Z,11.73
2023-03-10T01:47:43.150Z,11.75
2023-03-10T01:50:15.484Z,11.71
2023-03-10T01:52:46.611Z,11.61
2023-03-10T01:55:19.312Z,11.58
2023-03-10T01:57:51.701Z,11.58
2023-03-10T02:00:22.816Z,11.58
2023-03-10T02:02:54.946Z,11.58
2023-03-10T02:05:25.713Z,11.57
2023-03-10T02:07:56.486Z,11.53
2023-03-10T02:10:27.489Z,11.45
2023-03-10T02:12:58.226Z,11.39
2023-03-10T02:15:28.998Z,11.30
2023-03-10T02:17:59.844Z,11.22
2023-03-10T02:20:34.279Z,11.13
2023-03-10T02:23:05.173Z,11.05
2023-03-10T02:25:37.443Z,11.01
2023-03-10T02:28:08.247Z,10.97
2023-03-10T02:30:40.097Z,10.91
2023-03-10T02:33:11.512Z,10.87
2023-03-10T02:35:42.371Z,10.82
2023-03-10T02:38:13.218Z,10.73
2023-03-10T02:40:45.915Z,10.67
2023-03-10T02:43:18.457Z,10.62
2023-03-10T02:45:50.017Z,10.59
2023-03-10T02:48:22.223Z,10.60
2023-03-10T02:50:53.100Z,10.60
2023-03-10T02:53:25.387Z,10.60
2023-03-10T02:55:56.251Z,10.54
2023-03-10T02:58:27.491Z,10.48
2023-03-10T03:00:58.368Z,10.37
2023-03-10T03:03:29.214Z,10.28
2023-03-10T03:06:00.130Z,10.24
2023-03-10T03:08:30.768Z,10.20
2023-03-10T03:11:01.671Z,10.15
2023-03-10T03:13:32.464Z,10.11
2023-03-10T03:16:03.336Z,10.09
2023-03-10T03:18:34.179Z,10.06
2023-03-10T03:21:06.898Z,10.02
2023-03-10T03:23:38.209Z,10.02
2023-03-10T03:26:14.242Z,10.00
2023-03-10T03:28:45.729Z,9.97
2023-03-10T03:31:17.680Z,9.99
2023-03-10T03:33:48.724Z,9.96
2023-03-10T03:36:19.816Z,9.92
2023-03-10T03:38:50.712Z,9.91
2023-03-10T03:41:21.522Z,9.87
2023-03-10T03:43:52.304Z,9.84
2023-03-10T03:46:23.220Z,9.75
2023-03-10T03:48:53.989Z,9.63
2023-03-10T03:51:24.690Z,9.55
2023-03-10T03:53:55.467Z,9.50
2023-03-10T03:56:26.206Z,9.44
2023-03-10T03:58:56.943Z,9.39
2023-03-10T04:01:27.733Z,9.36
2023-03-10T04:03:58.468Z,9.35
2023-03-10T04:06:29.265Z,9.37
2023-03-10T04:09:00.023Z,9.38
2023-03-10T04:11:30.779Z,9.33
2023-03-10T04:14:01.674Z,9.32
2023-03-10T04:16:32.437Z,9.30
2023-03-10T04:19:03.244Z,9.30
2023-03-10T04:21:34.077Z,9.33
2023-03-10T04:24:05.190Z,9.33
2023-03-10T04:26:36.000Z,9.28
2023-03-10T04:29:06.818Z,9.26
2023-03-10T04:31:37.931Z,9.23
2023-03-10T04:34:08.764Z,9.23
2023-03-10T04:36:39.563Z,9.26
2023-03-10T04:39:11.158Z,9.25
2023-03-10T04:41:41.860Z,9.19
2023-03-10T04:44:29.892Z,9.16
2023-03-10T04:47:01.427Z,9.21
2023-03-10T04:49:32.206Z,9.25
2023-03-10T04:52:02.983Z,9.28
2023-03-10T04:54:40.924Z,9.32
2023-03-10T04:57:13.114Z,9.37
2023-03-10T04:59:44.071Z,9.38
2023-03-10T05:02:15.009Z,9.39
2023-03-10T05:04:45.945Z,9.30
2023-03-10T05:07:16.709Z,9.26
2023-03-10T05:09:48.493Z,9.24
2023-03-10T05:12:19.360Z,9.24
2023-03-10T05:14:50.113Z,9.31
2023-03-10T05:17:20.727Z,9.36
2023-03-10T05:19:51.491Z,9.42
2023-03-10T05:22:23.574Z,9.50
2023-03-10T05:24:54.305Z,9.59
2023-03-10T05:27:26.276Z,9.68
2023-03-10T05:29:57.087Z,9.70
2023-03-10T05:32:28.108Z,9.69
2023-03-10T05:34:58.992Z,9.71
2023-03-10T05:37:30.035Z,9.72
2023-03-10T05:40:01.022Z,9.73
2023-03-10T05:42:31.962Z,9.79
2023-03-10T05:45:05.113Z,9.85
2023-03-10T05:47:35.994Z,9.79
2023-03-10T05:50:07.484Z,9.84
2023-03-10T05:52:39.574Z,9.92
2023-03-10T05:55:12.898Z,9.90
2023-03-10T05:57:43.840Z,9.86
2023-03-10T06:00:17.121Z,9.83
2023-03-10T06:02:47.971Z,9.85
2023-03-10T06:05:18.905Z,9.83
2023-03-10T06:07:49.596Z,9.72
2023-03-10T06:10:20.549Z,9.69
2023-03-10T06:12:51.430Z,9.64
2023-03-10T06:15:22.199Z,9.66
2023-03-10T06:17:53.024Z,9.73
2023-03-10T06:20:23.820Z,9.72
2023-03-10T06:22:54.487Z,9.65
2023-03-10T06:25:25.381Z,9.64
2023-03-10T06:27:56.242Z,9.67
2023-03-10T06:30:27.060Z,9.75
2023-03-10T06:32:57.909Z,9.83
2023-03-10T06:35:28.809Z,9.92
2023-03-10T06:37:59.535Z,9.97
2023-03-10T06:40:30.502Z,9.96
2023-03-10T06:43:01.267Z,10.04
2023-03-10T06:45:32.025Z,10.12
2023-03-10T06:48:03.145Z,10.23
2023-03-10T06:50:33.887Z,10.38
2023-03-10T06:53:04.630Z,10.55
2023-03-10T06:55:35.410Z,10.68
2023-03-10T06:58:06.395Z,10.79
2023-03-10T07:00:37.016Z,10.89
2023-03-10T07:03:07.845Z,10.95
2023-03-10T07:05:38.715Z,11.07
2023-03-10T07:08:09.418Z,11.17
2023-03-10T07:10:40.309Z,11.23
2023-03-10T07:13:13.972Z,11.25
2023-03-10T07:15:44.943Z,11.28
2023-03-10T07:18:16.095Z,11.32
2023-03-10T07:20:47.966Z,11.43
2023-03-10T07:23:18.784Z,11.56
2023-03-10T07:25:52.524Z,11.65
2023-03-10T07:28:23.306Z,11.75
2023-03-10T07:30:55.180Z,11.83
2023-03-10T07:33:26.128Z,11.90
2023-03-10T07:35:57.104Z,11.99
2023-03-10T07:38:28.000Z,12.04
2023-03-10T07:41:00.851Z,12.09
2023-03-10T07:43:32.794Z,12.19
2023-03-10T07:46:03.542Z,12.28
2023-03-10T07:48:34.702Z,12.34
2023-03-10T07:51:05.760Z,12.35
2023-03-10T07:53:37.034Z,12.39
2023-03-10T07:56:08.289Z,12.44
2023-03-10T07:58:39.709Z,12.53
2023-03-10T08:01:11.127Z,12.63
2023-03-10T08:03:41.959Z,12.69
2023-03-10T08:06:12.699Z,12.75
2023-03-10T08:08:43.352Z,12.82
2023-03-10T08:11:14.190Z,12.90
2023-03-10T08:13:47.541Z,12.97
2023-03-10T08:16:19.781Z,13.03
2023-03-10T08:18:52.241Z,13.11
2023-03-10T08:21:23.169Z,13.18
2023-03-10T08:23:53.820Z,13.22
2023-03-10T08:26:24.614Z,13.27
2023-03-10T08:28:55.389Z,13.36
2023-03-10T08:31:26.247Z,13.46
2023-03-10T08:33:58.169Z,13.56
2023-03-10T08:36:30.093Z,13.66
2023-03-10T08:39:02.452Z,13.78
2023-03-10T08:41:35.575Z,13.84
2023-03-10T08:44:07.852Z,13.92
2023-03-10T08:46:38.925Z,14.02
2023-03-10T08:49:09.714Z,14.14
2023-03-10T08:51:40.444Z,14.24
2023-03-10T08:54:12.194Z,14.30
2023-03-10T08:56:43.155Z,14.42
2023-03-10T08:59:14.077Z,14.51
2023-03-10T09:01:45.001Z,14.62
2023-03-10T09:04:15.780Z,14.73
2023-03-10T09:06:46.628Z,14.76
2023-03-10T09:09:17.445Z,14.79
2023-03-10T09:11:48.232Z,14.84
2023-03-10T09:14:20.355Z,14.94
2023-03-10T09:16:51.046Z,15.03
2023-03-10T09:19:21.679Z,15.15
2023-03-10T09:21:52.373Z,15.27
2023-03-10T09:24:23.160Z,15.44
2023-03-10T09:26:55.946Z,15.60
2023-03-10T09:29:42.263Z,15.79
2023-03-10T09:32:14.034Z,15.94
2023-03-10T09:34:46.785Z,16.04
2023-03-10T09:37:17.632Z,16.15
2023-03-10T09:39:48.422Z,16.30
2023-03-10T09:42:37.858Z,16.49
2023-03-10T09:45:12.136Z,16.77
2023-03-10T09:47:46.618Z,17.01
2023-03-10T09:50:26.147Z,17.29
2023-03-10T09:52:59.797Z,17.56
2023-03-10T09:55:31.002Z,17.90
2023-03-10T09:58:03.941Z,18.29
2023-03-10T10:00:37.232Z,18.67
2023-03-10T10:03:09.381Z,18.95
2023-03-10T10:05:40.273Z,19.20
2023-03-10T10:08:14.669Z,19.47
2023-03-10T10:10:45.539Z,19.71
2023-03-10T10:13:16.783Z,19.88
2023-03-10T10:15:49.992Z,20.05
2023-03-10T10:18:25.683Z,20.21
2023-03-10T10:20:59.322Z,20.39
2023-03-10T10:23:32.849Z,20.45
2023-03-10T10:26:07.081Z,20.55
2023-03-10T10:28:42.002Z,20.73
2023-03-10T10:31:17.402Z,20.77
2023-03-10T10:33:55.619Z,20.73
2023-03-10T10:36:26.814Z,20.78
2023-03-10T10:38:57.949Z,20.89
2023-03-10T10:41:30.104Z,20.94
2023-03-10T10:44:01.755Z,21.10
2023-03-10T10:46:32.899Z,21.27
2023-03-10T10:49:19.739Z,21.39
2023-03-10T10:51:59.107Z,21.42
2023-03-10T10:54:30.362Z,21.29
2023-03-10T10:57:01.961Z,21.24
2023-03-10T10:59:33.497Z,21.43
2023-03-10T11:02:04.599Z,21.73
2023-03-10T11:04:44.241Z,22.05
2023-03-10T11:07:19.070Z,22.33
2023-03-10T11:09:49.919Z,22.60
2023-03-10T11:12:22.273Z,22.87
2023-03-10T11:14:57.737Z,23.09
2023-03-10T11:17:29.971Z,23.26
2023-03-10T11:20:05.239Z,23.27
2023-03-10T11:22:37.772Z,23.36
2023-03-10T11:25:10.178Z,23.61
2023-03-10T11:27:45.421Z,23.91
2023-03-10T11:30:17.230Z,24.25
2023-03-10T11:32:51.673Z,24.64
2023-03-10T11:35:25.605Z,24.98
2023-03-10T11:37:58.071Z,25.20
2023-03-10T11:40:30.533Z,25.32
2023-03-10T11:43:01.798Z,25.28
2023-03-10T11:45:34.033Z,25.42
2023-03-10T11:48:27.277Z,25.56
2023-03-10T11:50:59.394Z,25.38
2023-03-10T11:53:33.014Z,25.17
2023-03-10T11:56:04.128Z,24.87
2023-03-10T11:58:37.480Z,24.74
2023-03-10T12:01:08.474Z,24.72
2023-03-10T12:03:43.965Z,24.81
2023-03-10T12:06:16.333Z,25.01
2023-03-10T12:08:47.194Z,24.95
2023-03-10T12:11:18.600Z,24.76
2023-03-10T12:13:49.888Z,24.58
2023-03-10T12:16:21.830Z,24.22
2023-03-10T12:18:53.605Z,23.86
2023-03-10T12:21:25.134Z,23.67
2023-03-10T12:23:56.520Z,23.65
2023-03-10T12:26:45.233Z,23.85
2023-03-10T12:29:32.493Z,24.11
2023-03-10T12:32:03.416Z,24.37
2023-03-10T12:34:34.801Z,24.74
2023-03-10T12:37:06.984Z,24.94
2023-03-10T12:39:39.810Z,25.08
2023-03-10T12:42:26.147Z,25.10
2023-03-10T12:44:58.424Z,25.00
2023-03-10T12:47:32.164Z,25.02
2023-03-10T12:50:05.296Z,25.08
2023-03-10T12:52:48.100Z,25.09
2023-03-10T12:55:21.156Z,25.03
2023-03-10T12:57:55.214Z,24.99
2023-03-10T13:00:31.129Z,25.07
2023-03-10T13:03:03.128Z,25.09
2023-03-10T13:05:35.448Z,24.92
2023-03-10T13:08:11.842Z,24.84
2023-03-10T13:10:42.761Z,24.90
2023-03-10T13:13:15.764Z,24.81
2023-03-10T13:15:48.203Z,24.77
2023-03-10T13:18:19.805Z,24.78
2023-03-10T13:20:51.232Z,24.68
2023-03-10T13:23:24.105Z,24.52
2023-03-10T13:25:58.341Z,24.24
2023-03-10T13:28:29.570Z,23.87
2023-03-10T13:31:19.797Z,23.50
2023-03-10T13:33:53.749Z,23.08
2023-03-10T13:36:27.491Z,22.75
2023-03-10T13:38:58.553Z,22.48
2023-03-10T13:41:30.392Z,22.19
2023-03-10T13:44:01.219Z,21.95
2023-03-10T13:46:32.731Z,21.74
2023-03-10T13:49:06.500Z,21.71
2023-03-10T13:51:37.856Z,21.68
2023-03-10T13:54:18.691Z,21.67
2023-03-10T13:56:49.622Z,21.57
2023-03-10T13:59:22.018Z,21.43
2023-03-10T14:01:54.209Z,21.37
2023-03-10T14:04:38.314Z,21.35
2023-03-10T14:07:09.733Z,21.34
2023-03-10T14:09:40.447Z,21.32
2023-03-10T14:12:11.233Z,21.20
2023-03-10T14:14:42.665Z,21.11
2023-03-10T14:20:13.964Z,20.92
2023-03-10T14:22:44.551Z,20.71
2023-03-10T14:25:16.778Z,20.59
2023-03-10T14:27:48.248Z,20.49
2023-03-10T14:30:26.554Z,20.37
2023-03-10T14:32:57.906Z,20.21
2023-03-10T14:35:29.523Z,20.09
2023-03-10T14:38:00.300Z,20.00
2023-03-10T14:40:31.019Z,19.89
2023-03-10T14:43:02.434Z,19.79
2023-03-10T14:45:34.070Z,19.72
2023-03-10T14:48:05.827Z,19.66
2023-03-10T14:50:36.904Z,19.57
2023-03-10T14:53:10.418Z,19.49
2023-03-10T14:55:41.454Z,19.43
2023-03-10T14:58:13.310Z,19.40
2023-03-10T15:00:44.090Z,19.40
2023-03-10T15:03:15.262Z,19.35
2023-03-10T15:05:49.046Z,19.32
2023-03-10T15:08:20.338Z,19.29
2023-03-10T15:10:51.280Z,19.27
2023-03-10T15:13:22.729Z,19.24
2023-03-10T15:15:53.569Z,19.20
2023-03-10T15:18:27.161Z,19.17
2023-03-10T15:21:03.438Z,19.13
2023-03-10T15:23:34.851Z,19.09
2023-03-10T15:26:09.806Z,19.04
2023-03-10T15:28:40.691Z,18.97
2023-03-10T15:31:11.557Z,18.91
2023-03-10T15:33:42.364Z,18.89
2023-03-10T15:36:13.229Z,18.86
2023-03-10T15:38:44.102Z,18.85
2023-03-10T15:41:17.133Z,18.82
2023-03-10T15:43:48.033Z,18.78
2023-03-10T15:46:19.060Z,18.76
2023-03-10T15:48:49.744Z,18.73
2023-03-10T15:51:21.214Z,18.72
2023-03-10T15:53:51.926Z,18.71
2023-03-10T15:56:22.654Z,18.69
2023-03-10T15:58:54.091Z,18.68
2023-03-10T16:01:25.052Z,18.65
2023-03-10T16:10:34.952Z,18.64
2023-03-10T16:13:05.620Z,18.60
2023-03-10T16:15:36.473Z,18.59
2023-03-10T16:18:07.558Z,18.58
2023-03-10T16:20:38.351Z,18.57
2023-03-10T16:23:09.282Z,18.54
2023-03-10T16:25:41.066Z,18.51
2023-03-10T16:28:11.770Z,18.50
2023-03-10T16:30:42.738Z,18.52
2023-03-10T16:33:14.011Z,18.57
2023-03-10T16:35:45.750Z,18.63
2023-03-10T16:38:16.620Z,18.59
2023-03-10T16:43:00.356Z,18.28
2023-03-10T16:45:32.794Z,17.99
2023-03-10T16:48:03.488Z,17.78
2023-03-10T16:50:38.786Z,17.60
2023-03-10T16:53:11.108Z,17.41
2023-03-10T16:55:43.505Z,17.21
2023-03-10T16:58:15.820Z,17.06
2023-03-10T17:00:48.079Z,16.91
2023-03-10T17:03:20.521Z,16.70
2023-03-10T17:05:53.876Z,16.44
2023-03-10T17:08:26.438Z,16.13
2023-03-10T17:10:58.693Z,15.94
2023-03-10T17:13:31.116Z,15.79
2023-03-10T17:16:03.919Z,15.63
2023-03-10T17:18:36.372Z,15.36
2023-03-10T17:21:12.811Z,15.11
2023-03-10T17:23:45.594Z,14.92
2023-03-10T17:26:18.437Z,14.81
2023-03-10T17:28:52.131Z,14.71
2023-03-10T17:31:27.299Z,14.66
2023-03-10T17:34:01.877Z,14.56
2023-03-10T17:36:34.625Z,14.51
2023-03-10T17:39:08.067Z,14.45
2023-03-10T17:41:40.764Z,14.38
2023-03-10T17:44:13.563Z,14.33
2023-03-10T17:46:45.491Z,14.29
2023-03-10T17:49:19.367Z,14.24
2023-03-10T17:51:52.137Z,14.20
2023-03-10T17:54:24.954Z,14.15
2023-03-10T17:56:57.624Z,14.13
2023-03-10T17:59:32.099Z,14.14
2023-03-10T18:02:04.730Z,14.15
2023-03-10T18:04:40.582Z,14.24
2023-03-10T18:07:13.237Z,14.32
2023-03-10T18:09:45.805Z,14.38
2023-03-10T18:12:16.907Z,14.44
2023-03-10T18:14:49.497Z,14.49
2023-03-10T18:17:22.135Z,14.50
2023-03-10T18:19:54.274Z,14.57
2023-03-10T18:22:27.056Z,14.60
2023-03-10T18:25:01.829Z,14.67
2023-03-10T18:27:35.507Z,14.70
2023-03-10T18:30:10.244Z,14.67
2023-03-10T18:32:43.413Z,14.67
2023-03-10T18:35:16.143Z,14.67
2023-03-10T18:37:47.128Z,14.73
2023-03-10T18:40:20.119Z,14.83
2023-03-10T18:42:52.796Z,14.99
2023-03-10T18:45:26.146Z,15.05
2023-03-10T18:47:58.766Z,15.07
2023-03-10T18:50:31.285Z,15.08
2023-03-10T18:53:03.949Z,15.19
2023-03-10T18:55:34.854Z,15.30
2023-03-10T18:58:07.480Z,15.35
2023-03-10T19:00:40.284Z,15.40
2023-03-10T19:03:13.874Z,15.52
2023-03-10T19:05:47.140Z,15.61
2023-03-10T19:08:20.161Z,15.64
2023-03-10T19:10:59.372Z,15.59
2023-03-10T19:13:32.372Z,15.60
2023-03-10T19:16:08.460Z,15.55
2023-03-10T19:18:41.236Z,15.46
2023-03-10T19:21:13.165Z,15.39
2023-03-10T19:23:45.804Z,15.29
2023-03-10T19:26:16.661Z,15.16
2023-03-10T19:28:49.326Z,15.07
2023-03-10T19:31:20.371Z,15.06
2023-03-10T19:33:53.192Z,15.06
2023-03-10T19:36:29.718Z,15.02
2023-03-10T19:39:02.223Z,14.94
2023-03-10T19:41:34.757Z,14.98
2023-03-10T19:44:05.812Z,15.00
2023-03-10T19:46:38.700Z,14.98
2023-03-10T19:49:11.469Z,14.91
2023-03-10T19:51:42.312Z,14.83
2023-03-10T19:54:15.122Z,14.77
2023-03-10T19:56:46.152Z,14.71
2023-03-10T19:59:18.694Z,14.70
2023-03-10T20:01:51.761Z,14.77
2023-03-10T20:04:24.448Z,14.86
2023-03-10T20:06:57.148Z,14.95
2023-03-10T20:09:29.788Z,15.02
2023-03-10T20:12:00.766Z,15.05
2023-03-10T20:14:33.365Z,15.05
2023-03-10T20:17:05.970Z,15.11
2023-03-10T20:19:36.823Z,15.13
2023-03-10T20:22:09.353Z,15.09
2023-03-10T20:24:41.819Z,15.07
2023-03-10T20:27:14.509Z,15.04
2023-03-10T20:29:47.107Z,15.03
2023-03-10T20:32:18.743Z,15.08
2023-03-10T20:34:51.306Z,15.13
2023-03-10T20:37:22.387Z,15.10
2023-03-10T20:39:55.635Z,15.08
2023-03-10T20:42:29.617Z,15.06
2023-03-10T20:45:05.191Z,15.04
2023-03-10T20:47:38.033Z,15.00
2023-03-10T20:50:09.797Z,14.98
2023-03-10T20:52:43.514Z,14.97
2023-03-10T20:55:20.330Z,14.96
2023-03-10T20:57:55.206Z,15.00
2023-03-10T21:00:29.967Z,14.99
2023-03-10T21:03:02.899Z,14.96
2023-03-10T21:05:35.526Z,14.92
2023-03-10T21:08:08.550Z,14.92
2023-03-10T21:10:41.869Z,14.96
2023-03-10T21:13:14.515Z,15.04
2023-03-10T21:15:45.517Z,15.04
2023-03-10T21:18:18.213Z,14.94
2023-03-10T21:20:50.777Z,14.79
2023-03-10T21:23:23.342Z,14.78
2023-03-10T21:25:55.893Z,14.83
2023-03-10T21:28:28.479Z,14.93
2023-03-10T21:31:01.198Z,14.90
2023-03-10T21:33:32.037Z,14.95
2023-03-10T21:36:05.401Z,15.04
2023-03-10T21:38:38.245Z,15.06
2023-03-10T21:41:10.919Z,15.05
2023-03-10T21:43:43.348Z,15.06
2023-03-10T21:46:16.175Z,15.11
2023-03-10T21:48:48.970Z,15.19
2023-03-10T21:51:23.286Z,15.24
2023-03-10T21:53:56.476Z,15.30
2023-03-10T21:56:29.406Z,15.32
2023-03-10T21:59:02.244Z,15.34
2023-03-10T22:01:35.086Z,15.36
2023-03-10T22:04:07.890Z,15.34
2023-03-10T22:06:38.848Z,15.36
2023-03-10T22:09:11.524Z,15.33
2023-03-10T22:11:42.543Z,15.35
2023-03-10T22:14:15.440Z,15.37
2023-03-10T22:23:57.353Z,15.44
2023-03-10T22:26:28.211Z,15.42
2023-03-10T22:29:01.098Z,15.37
2023-03-10T22:31:33.750Z,15.32
2023-03-10T22:34:04.570Z,15.30
2023-03-10T22:36:37.056Z,15.25
2023-03-10T22:39:07.827Z,15.17
2023-03-10T22:41:40.284Z,15.06
2023-03-10T22:44:11.110Z,14.94
2023-03-10T22:46:46.230Z,14.81
2023-03-10T22:49:18.872Z,14.73
2023-03-10T22:51:51.479Z,14.65
2023-03-10T22:54:22.276Z,14.58
2023-03-10T22:56:54.902Z,14.47
2023-03-10T22:59:26.395Z,14.40
2023-03-10T23:01:58.846Z,14.30
2023-03-10T23:04:30.144Z,14.27
2023-03-10T23:07:02.557Z,14.19
2023-03-10T23:09:35.174Z,14.13
2023-03-10T23:12:06.099Z,14.09
2023-03-10T23:14:38.571Z,14.02
2023-03-10T23:17:11.158Z,14.02
2023-03-10T23:19:41.868Z,14.03
2023-03-10T23:22:14.468Z,14.02
2023-03-10T23:24:47.238Z,14.02
2023-03-10T23:27:20.140Z,14.03
2023-03-10T23:29:52.535Z,13.99
2023-03-10T23:32:42.520Z,14.00
2023-03-10T23:35:13.976Z,13.95
2023-03-10T23:37:46.401Z,13.89
2023-03-10T23:40:20.730Z,13.90
2023-03-10T23:42:53.617Z,13.90
2023-03-10T23:45:27.313Z,13.90
2023-03-10T23:48:01.676Z,13.90
2023-03-10T23:50:36.605Z,13.90
2023-03-10T23:53:10.817Z,13.90
2023-03-10T23:55:44.948Z,13.89
2023-03-10T23:58:19.788Z,13.84
